sensor_id;sensor_type;location;lat;lon;timestamp;P1;durP1;ratioP1;P2;durP2;ratioP2
54247;SDS011;40161;39.768;2.722;2022-12-07T00:01:06;9.52;;;4.47;;
54247;SDS011;40161;39.768;2.722;2022-12-07T00:03:53;8.48;;;3.83;;
54247;SDS011;40161;39.768;2.722;2022-12-07T00:06:22;9.05;;;4.80;;
54247;SDS011;40161;39.768;2.722;2022-12-07T00:08:47;10.77;;;5.30;;
54247;SDS011;40161;39.768;2.722;2022-12-07T00:11:14;13.88;;;5.32;;
54247;SDS011;40161;39.768;2.722;2022-12-07T00:13:43;12.35;;;5.75;;
54247;SDS011;40161;39.768;2.722;2022-12-07T00:16:10;11.80;;;6.18;;
54247;SDS011;40161;39.768;2.722;2022-12-07T00:18:40;11.52;;;6.43;;
54247;SDS011;40161;39.768;2.722;2022-12-07T00:21:08;10.90;;;5.35;;
54247;SDS011;40161;39.768;2.722;2022-12-07T00:23:35;10.57;;;4.75;;
54247;SDS011;40161;39.768;2.722;2022-12-07T00:26:08;10.23;;;4.63;;
54247;SDS011;40161;39.768;2.722;2022-12-07T00:28:39;8.68;;;4.60;;
54247;SDS011;40161;39.768;2.722;2022-12-07T00:31:06;8.30;;;4.45;;
54247;SDS011;40161;39.768;2.722;2022-12-07T00:33:34;10.48;;;4.50;;
54247;SDS011;40161;39.768;2.722;2022-12-07T00:36:00;12.73;;;5.53;;
54247;SDS011;40161;39.768;2.722;2022-12-07T00:38:29;12.60;;;5.50;;
54247;SDS011;40161;39.768;2.722;2022-12-07T00:41:00;11.52;;;5.53;;
54247;SDS011;40161;39.768;2.722;2022-12-07T00:43:27;10.18;;;4.95;;
54247;SDS011;40161;39.768;2.722;2022-12-07T00:45:54;9.57;;;4.55;;
54247;SDS011;40161;39.768;2.722;2022-12-07T00:48:20;13.70;;;5.00;;
54247;SDS011;40161;39.768;2.722;2022-12-07T00:50:46;14.60;;;5.32;;
54247;SDS011;40161;39.768;2.722;2022-12-07T00:53:12;7.68;;;4.32;;
54247;SDS011;40161;39.768;2.722;2022-12-07T00:55:38;10.35;;;3.75;;
54247;SDS011;40161;39.768;2.722;2022-12-07T00:58:04;9.10;;;4.22;;
54247;SDS011;40161;39.768;2.722;2022-12-07T01:00:30;11.25;;;4.35;;
54247;SDS011;40161;39.768;2.722;2022-12-07T01:02:55;11.15;;;4.70;;
54247;SDS011;40161;39.768;2.722;2022-12-07T01:05:21;11.80;;;5.18;;
54247;SDS011;40161;39.768;2.722;2022-12-07T01:07:47;16.42;;;7.45;;
54247;SDS011;40161;39.768;2.722;2022-12-07T01:10:13;12.02;;;6.15;;
54247;SDS011;40161;39.768;2.722;2022-12-07T01:12:39;13.13;;;6.30;;
54247;SDS011;40161;39.768;2.722;2022-12-07T01:15:06;12.75;;;6.07;;
54247;SDS011;40161;39.768;2.722;2022-12-07T01:17:32;9.90;;;5.50;;
54247;SDS011;40161;39.768;2.722;2022-12-07T01:19:58;10.68;;;5.10;;
54247;SDS011;40161;39.768;2.722;2022-12-07T01:22:24;11.32;;;4.90;;
54247;SDS011;40161;39.768;2.722;2022-12-07T01:24:49;8.65;;;5.00;;
54247;SDS011;40161;39.768;2.722;2022-12-07T01:27:15;9.80;;;4.85;;
54247;SDS011;40161;39.768;2.722;2022-12-07T01:29:41;8.50;;;4.72;;
54247;SDS011;40161;39.768;2.722;2022-12-07T01:32:06;9.20;;;4.60;;
54247;SDS011;40161;39.768;2.722;2022-12-07T01:34:32;9.27;;;4.50;;
54247;SDS011;40161;39.768;2.722;2022-12-07T01:36:58;9.55;;;5.15;;
54247;SDS011;40161;39.768;2.722;2022-12-07T01:39:23;9.93;;;5.25;;
54247;SDS011;40161;39.768;2.722;2022-12-07T01:41:49;8.35;;;5.20;;
54247;SDS011;40161;39.768;2.722;2022-12-07T01:49:26;11.18;;;6.55;;
54247;SDS011;40161;39.768;2.722;2022-12-07T01:52:02;12.80;;;6.45;;
54247;SDS011;40161;39.768;2.722;2022-12-07T01:54:45;14.35;;;7.15;;
54247;SDS011;40161;39.768;2.722;2022-12-07T01:57:13;10.77;;;6.20;;
54247;SDS011;40161;39.768;2.722;2022-12-07T01:59:41;11.43;;;6.22;;
54247;SDS011;40161;39.768;2.722;2022-12-07T02:02:11;13.70;;;6.35;;
54247;SDS011;40161;39.768;2.722;2022-12-07T02:04:43;11.20;;;6.88;;
54247;SDS011;40161;39.768;2.722;2022-12-07T02:07:09;15.25;;;7.70;;
54247;SDS011;40161;39.768;2.722;2022-12-07T02:09:34;12.02;;;5.93;;
54247;SDS011;40161;39.768;2.722;2022-12-07T02:12:00;10.85;;;5.72;;
54247;SDS011;40161;39.768;2.722;2022-12-07T02:14:26;12.05;;;5.70;;
54247;SDS011;40161;39.768;2.722;2022-12-07T02:22:31;11.10;;;5.93;;
54247;SDS011;40161;39.768;2.722;2022-12-07T02:30:48;11.10;;;4.80;;
54247;SDS011;40161;39.768;2.722;2022-12-07T02:36:03;12.13;;;5.90;;
54247;SDS011;40161;39.768;2.722;2022-12-07T02:38:40;13.18;;;6.03;;
54247;SDS011;40161;39.768;2.722;2022-12-07T02:41:13;11.02;;;5.15;;
54247;SDS011;40161;39.768;2.722;2022-12-07T02:44:00;12.33;;;5.57;;
54247;SDS011;40161;39.768;2.722;2022-12-07T02:46:30;10.95;;;5.57;;
54247;SDS011;40161;39.768;2.722;2022-12-07T02:49:02;10.13;;;5.75;;
54247;SDS011;40161;39.768;2.722;2022-12-07T02:51:29;9.20;;;4.70;;
54247;SDS011;40161;39.768;2.722;2022-12-07T02:53:56;9.32;;;4.72;;
54247;SDS011;40161;39.768;2.722;2022-12-07T03:01:59;10.10;;;4.78;;
54247;SDS011;40161;39.768;2.722;2022-12-07T03:15:25;8.80;;;4.97;;
54247;SDS011;40161;39.768;2.722;2022-12-07T03:17:54;10.77;;;5.18;;
54247;SDS011;40161;39.768;2.722;2022-12-07T03:20:23;13.80;;;5.05;;
54247;SDS011;40161;39.768;2.722;2022-12-07T03:22:50;11.15;;;5.22;;
54247;SDS011;40161;39.768;2.722;2022-12-07T03:25:19;13.43;;;4.90;;
54247;SDS011;40161;39.768;2.722;2022-12-07T03:30:23;10.35;;;6.20;;
54247;SDS011;40161;39.768;2.722;2022-12-07T03:33:12;10.63;;;5.22;;
54247;SDS011;40161;39.768;2.722;2022-12-07T03:35:45;10.70;;;5.38;;
54247;SDS011;40161;39.768;2.722;2022-12-07T03:38:21;11.82;;;6.40;;
54247;SDS011;40161;39.768;2.722;2022-12-07T03:40:54;11.73;;;5.90;;
54247;SDS011;40161;39.768;2.722;2022-12-07T03:43:27;9.98;;;5.40;;
54247;SDS011;40161;39.768;2.722;2022-12-07T03:54:27;12.68;;;6.70;;
54247;SDS011;40161;39.768;2.722;2022-12-07T03:57:06;12.55;;;6.47;;
54247;SDS011;40161;39.768;2.722;2022-12-07T03:59:34;12.35;;;6.68;;
54247;SDS011;40161;39.768;2.722;2022-12-07T04:02:01;10.65;;;6.25;;
54247;SDS011;40161;39.768;2.722;2022-12-07T04:04:29;10.07;;;5.60;;
54247;SDS011;40161;39.768;2.722;2022-12-07T04:06:55;17.42;;;7.03;;
54247;SDS011;40161;39.768;2.722;2022-12-07T04:09:21;10.70;;;5.95;;
54247;SDS011;40161;39.768;2.722;2022-12-07T04:11:47;9.57;;;5.47;;
54247;SDS011;40161;39.768;2.722;2022-12-07T04:14:12;12.30;;;5.95;;
54247;SDS011;40161;39.768;2.722;2022-12-07T04:16:54;14.02;;;6.25;;
54247;SDS011;40161;39.768;2.722;2022-12-07T04:19:25;10.48;;;5.82;;
54247;SDS011;40161;39.768;2.722;2022-12-07T04:21:52;9.00;;;5.45;;
54247;SDS011;40161;39.768;2.722;2022-12-07T04:24:18;10.20;;;5.82;;
54247;SDS011;40161;39.768;2.722;2022-12-07T04:26:44;10.73;;;6.00;;
54247;SDS011;40161;39.768;2.722;2022-12-07T04:29:11;8.88;;;5.53;;
54247;SDS011;40161;39.768;2.722;2022-12-07T04:31:37;9.10;;;5.50;;
54247;SDS011;40161;39.768;2.722;2022-12-07T04:34:03;10.73;;;5.68;;
54247;SDS011;40161;39.768;2.722;2022-12-07T04:36:29;10.57;;;5.18;;
54247;SDS011;40161;39.768;2.722;2022-12-07T04:38:54;11.45;;;5.50;;
54247;SDS011;40161;39.768;2.722;2022-12-07T04:41:21;10.20;;;5.20;;
54247;SDS011;40161;39.768;2.722;2022-12-07T04:43:54;9.73;;;5.70;;
54247;SDS011;40161;39.768;2.722;2022-12-07T04:46:21;12.10;;;5.50;;
54247;SDS011;40161;39.768;2.722;2022-12-07T04:48:48;8.75;;;5.30;;
54247;SDS011;40161;39.768;2.722;2022-12-07T04:51:15;10.30;;;5.45;;
54247;SDS011;40161;39.768;2.722;2022-12-07T04:53:44;13.30;;;6.30;;
54247;SDS011;40161;39.768;2.722;2022-12-07T04:56:10;11.88;;;6.38;;
54247;SDS011;40161;39.768;2.722;2022-12-07T04:58:35;10.02;;;6.28;;
54247;SDS011;40161;39.768;2.722;2022-12-07T05:01:01;9.45;;;5.85;;
54247;SDS011;40161;39.768;2.722;2022-12-07T05:03:26;9.50;;;5.15;;
54247;SDS011;40161;39.768;2.722;2022-12-07T05:05:52;12.18;;;6.20;;
54247;SDS011;40161;39.768;2.722;2022-12-07T05:08:17;11.45;;;5.68;;
54247;SDS011;40161;39.768;2.722;2022-12-07T05:10:43;10.52;;;6.10;;
54247;SDS011;40161;39.768;2.722;2022-12-07T05:13:09;11.25;;;5.72;;
54247;SDS011;40161;39.768;2.722;2022-12-07T05:15:34;11.70;;;6.47;;
54247;SDS011;40161;39.768;2.722;2022-12-07T05:18:00;10.43;;;6.68;;
54247;SDS011;40161;39.768;2.722;2022-12-07T05:20:25;10.98;;;6.18;;
54247;SDS011;40161;39.768;2.722;2022-12-07T05:22:51;8.88;;;5.75;;
54247;SDS011;40161;39.768;2.722;2022-12-07T05:25:16;9.43;;;5.18;;
54247;SDS011;40161;39.768;2.722;2022-12-07T05:27:43;11.68;;;6.28;;
54247;SDS011;40161;39.768;2.722;2022-12-07T05:30:09;9.55;;;4.95;;
54247;SDS011;40161;39.768;2.722;2022-12-07T05:32:34;10.70;;;5.30;;
54247;SDS011;40161;39.768;2.722;2022-12-07T05:35:00;10.52;;;4.50;;
54247;SDS011;40161;39.768;2.722;2022-12-07T05:37:25;9.02;;;4.75;;
54247;SDS011;40161;39.768;2.722;2022-12-07T05:39:51;9.57;;;4.63;;
54247;SDS011;40161;39.768;2.722;2022-12-07T05:42:16;9.32;;;4.70;;
54247;SDS011;40161;39.768;2.722;2022-12-07T05:44:43;11.95;;;5.05;;
54247;SDS011;40161;39.768;2.722;2022-12-07T05:47:10;7.70;;;3.85;;
54247;SDS011;40161;39.768;2.722;2022-12-07T05:49:36;6.72;;;3.80;;
54247;SDS011;40161;39.768;2.722;2022-12-07T05:52:02;8.07;;;4.50;;
54247;SDS011;40161;39.768;2.722;2022-12-07T05:54:28;10.10;;;4.90;;
54247;SDS011;40161;39.768;2.722;2022-12-07T05:56:54;10.50;;;4.70;;
54247;SDS011;40161;39.768;2.722;2022-12-07T05:59:19;9.05;;;4.53;;
54247;SDS011;40161;39.768;2.722;2022-12-07T06:01:58;12.05;;;4.60;;
54247;SDS011;40161;39.768;2.722;2022-12-07T06:04:26;9.32;;;4.95;;
54247;SDS011;40161;39.768;2.722;2022-12-07T06:06:57;10.10;;;5.00;;
54247;SDS011;40161;39.768;2.722;2022-12-07T06:09:23;9.43;;;4.32;;
54247;SDS011;40161;39.768;2.722;2022-12-07T06:11:49;8.85;;;4.50;;
54247;SDS011;40161;39.768;2.722;2022-12-07T06:14:34;7.28;;;3.92;;
54247;SDS011;40161;39.768;2.722;2022-12-07T06:17:00;8.43;;;3.83;;
54247;SDS011;40161;39.768;2.722;2022-12-07T06:19:26;6.85;;;4.30;;
54247;SDS011;40161;39.768;2.722;2022-12-07T06:21:52;7.55;;;4.43;;
54247;SDS011;40161;39.768;2.722;2022-12-07T06:24:18;8.55;;;3.30;;
54247;SDS011;40161;39.768;2.722;2022-12-07T06:26:44;9.00;;;4.90;;
54247;SDS011;40161;39.768;2.722;2022-12-07T06:29:10;9.98;;;4.57;;
54247;SDS011;40161;39.768;2.722;2022-12-07T06:31:36;9.75;;;4.53;;
54247;SDS011;40161;39.768;2.722;2022-12-07T06:34:07;11.52;;;4.72;;
54247;SDS011;40161;39.768;2.722;2022-12-07T06:36:43;10.15;;;3.80;;
54247;SDS011;40161;39.768;2.722;2022-12-07T06:39:10;9.80;;;3.83;;
54247;SDS011;40161;39.768;2.722;2022-12-07T06:41:36;7.07;;;3.03;;
54247;SDS011;40161;39.768;2.722;2022-12-07T06:44:03;6.50;;;2.67;;
54247;SDS011;40161;39.768;2.722;2022-12-07T06:46:31;13.70;;;6.90;;
54247;SDS011;40161;39.768;2.722;2022-12-07T06:48:57;16.27;;;9.75;;
54247;SDS011;40161;39.768;2.722;2022-12-07T06:51:23;13.23;;;6.10;;
54247;SDS011;40161;39.768;2.722;2022-12-07T06:53:49;8.02;;;3.47;;
54247;SDS011;40161;39.768;2.722;2022-12-07T06:56:14;7.75;;;3.22;;
54247;SDS011;40161;39.768;2.722;2022-12-07T06:58:40;10.75;;;3.88;;
54247;SDS011;40161;39.768;2.722;2022-12-07T07:01:13;9.43;;;3.72;;
54247;SDS011;40161;39.768;2.722;2022-12-07T07:03:40;7.70;;;3.83;;
54247;SDS011;40161;39.768;2.722;2022-12-07T07:06:06;11.18;;;4.50;;
54247;SDS011;40161;39.768;2.722;2022-12-07T07:08:35;7.47;;;4.38;;
54247;SDS011;40161;39.768;2.722;2022-12-07T07:11:02;9.65;;;5.40;;
54247;SDS011;40161;39.768;2.722;2022-12-07T07:13:28;9.25;;;4.70;;
54247;SDS011;40161;39.768;2.722;2022-12-07T07:15:54;10.95;;;5.45;;
54247;SDS011;40161;39.768;2.722;2022-12-07T07:18:20;10.13;;;5.53;;
54247;SDS011;40161;39.768;2.722;2022-12-07T07:20:46;13.52;;;6.25;;
54247;SDS011;40161;39.768;2.722;2022-12-07T07:23:11;15.48;;;7.25;;
54247;SDS011;40161;39.768;2.722;2022-12-07T07:25:37;29.58;;;12.90;;
54247;SDS011;40161;39.768;2.722;2022-12-07T07:28:03;17.48;;;7.18;;
54247;SDS011;40161;39.768;2.722;2022-12-07T07:30:29;11.45;;;5.22;;
54247;SDS011;40161;39.768;2.722;2022-12-07T07:32:58;10.70;;;4.60;;
54247;SDS011;40161;39.768;2.722;2022-12-07T07:35:25;11.98;;;5.65;;
54247;SDS011;40161;39.768;2.722;2022-12-07T07:37:51;9.63;;;4.90;;
54247;SDS011;40161;39.768;2.722;2022-12-07T07:40:17;12.23;;;5.07;;
54247;SDS011;40161;39.768;2.722;2022-12-07T07:42:42;10.77;;;5.13;;
54247;SDS011;40161;39.768;2.722;2022-12-07T07:45:08;9.63;;;5.00;;
54247;SDS011;40161;39.768;2.722;2022-12-07T07:47:34;14.45;;;4.78;;
54247;SDS011;40161;39.768;2.722;2022-12-07T07:50:00;19.55;;;5.22;;
54247;SDS011;40161;39.768;2.722;2022-12-07T07:52:25;11.40;;;4.47;;
54247;SDS011;40161;39.768;2.722;2022-12-07T07:54:51;8.05;;;3.72;;
54247;SDS011;40161;39.768;2.722;2022-12-07T07:57:17;12.68;;;4.70;;
54247;SDS011;40161;39.768;2.722;2022-12-07T07:59:43;9.20;;;4.18;;
54247;SDS011;40161;39.768;2.722;2022-12-07T08:02:15;11.13;;;3.78;;
54247;SDS011;40161;39.768;2.722;2022-12-07T08:04:43;10.07;;;4.47;;
54247;SDS011;40161;39.768;2.722;2022-12-07T08:07:09;14.10;;;4.65;;
54247;SDS011;40161;39.768;2.722;2022-12-07T08:09:35;9.30;;;4.22;;
54247;SDS011;40161;39.768;2.722;2022-12-07T08:12:01;13.65;;;4.82;;
54247;SDS011;40161;39.768;2.722;2022-12-07T08:14:27;11.98;;;4.47;;
54247;SDS011;40161;39.768;2.722;2022-12-07T08:16:53;16.70;;;6.63;;
54247;SDS011;40161;39.768;2.722;2022-12-07T08:19:19;12.93;;;7.80;;
54247;SDS011;40161;39.768;2.722;2022-12-07T08:21:45;9.77;;;6.35;;
54247;SDS011;40161;39.768;2.722;2022-12-07T08:24:11;14.27;;;7.65;;
54247;SDS011;40161;39.768;2.722;2022-12-07T08:26:37;11.63;;;6.50;;
54247;SDS011;40161;39.768;2.722;2022-12-07T08:29:03;12.18;;;7.32;;
54247;SDS011;40161;39.768;2.722;2022-12-07T08:31:28;16.75;;;8.77;;
54247;SDS011;40161;39.768;2.722;2022-12-07T08:33:54;11.60;;;6.60;;
54247;SDS011;40161;39.768;2.722;2022-12-07T08:36:20;11.32;;;6.10;;
54247;SDS011;40161;39.768;2.722;2022-12-07T08:38:49;12.40;;;5.82;;
54247;SDS011;40161;39.768;2.722;2022-12-07T08:41:15;10.48;;;6.05;;
54247;SDS011;40161;39.768;2.722;2022-12-07T08:43:41;10.88;;;6.15;;
54247;SDS011;40161;39.768;2.722;2022-12-07T08:46:09;12.82;;;5.60;;
54247;SDS011;40161;39.768;2.722;2022-12-07T08:48:36;13.40;;;6.05;;
54247;SDS011;40161;39.768;2.722;2022-12-07T08:51:08;15.48;;;7.43;;
54247;SDS011;40161;39.768;2.722;2022-12-07T08:53:34;23.58;;;9.40;;
54247;SDS011;40161;39.768;2.722;2022-12-07T08:56:00;21.35;;;9.70;;
54247;SDS011;40161;39.768;2.722;2022-12-07T08:58:26;22.60;;;12.43;;
54247;SDS011;40161;39.768;2.722;2022-12-07T09:00:52;23.27;;;12.57;;
54247;SDS011;40161;39.768;2.722;2022-12-07T09:03:17;25.98;;;12.82;;
54247;SDS011;40161;39.768;2.722;2022-12-07T09:05:43;25.30;;;13.40;;
54247;SDS011;40161;39.768;2.722;2022-12-07T09:08:09;24.42;;;14.45;;
54247;SDS011;40161;39.768;2.722;2022-12-07T09:10:35;21.73;;;14.25;;
54247;SDS011;40161;39.768;2.722;2022-12-07T09:13:00;23.33;;;14.45;;
54247;SDS011;40161;39.768;2.722;2022-12-07T09:15:27;29.95;;;17.90;;
54247;SDS011;40161;39.768;2.722;2022-12-07T09:17:53;31.40;;;18.67;;
54247;SDS011;40161;39.768;2.722;2022-12-07T09:20:19;22.67;;;15.85;;
54247;SDS011;40161;39.768;2.722;2022-12-07T09:22:45;20.13;;;14.50;;
54247;SDS011;40161;39.768;2.722;2022-12-07T09:25:11;22.75;;;14.45;;
54247;SDS011;40161;39.768;2.722;2022-12-07T09:27:37;19.77;;;12.98;;
54247;SDS011;40161;39.768;2.722;2022-12-07T09:30:03;20.80;;;13.50;;
54247;SDS011;40161;39.768;2.722;2022-12-07T09:32:30;17.02;;;11.88;;
54247;SDS011;40161;39.768;2.722;2022-12-07T09:34:56;17.77;;;10.50;;
54247;SDS011;40161;39.768;2.722;2022-12-07T09:37:21;14.05;;;9.15;;
54247;SDS011;40161;39.768;2.722;2022-12-07T09:39:47;17.63;;;9.05;;
54247;SDS011;40161;39.768;2.722;2022-12-07T09:42:34;13.02;;;9.48;;
54247;SDS011;40161;39.768;2.722;2022-12-07T09:45:05;19.48;;;14.98;;
54247;SDS011;40161;39.768;2.722;2022-12-07T09:47:32;33.75;;;30.45;;
54247;SDS011;40161;39.768;2.722;2022-12-07T09:50:06;25.23;;;22.42;;
54247;SDS011;40161;39.768;2.722;2022-12-07T09:52:37;15.40;;;13.68;;
54247;SDS011;40161;39.768;2.722;2022-12-07T09:55:03;19.67;;;14.25;;
54247;SDS011;40161;39.768;2.722;2022-12-07T09:57:37;15.35;;;9.18;;
54247;SDS011;40161;39.768;2.722;2022-12-07T10:00:05;13.57;;;8.93;;
54247;SDS011;40161;39.768;2.722;2022-12-07T10:02:37;12.10;;;10.63;;
54247;SDS011;40161;39.768;2.722;2022-12-07T10:05:07;13.32;;;10.57;;
54247;SDS011;40161;39.768;2.722;2022-12-07T10:07:38;13.38;;;7.75;;
54247;SDS011;40161;39.768;2.722;2022-12-07T10:10:06;12.02;;;6.18;;
54247;SDS011;40161;39.768;2.722;2022-12-07T10:13:01;11.93;;;5.90;;
54247;SDS011;40161;39.768;2.722;2022-12-07T10:19:04;10.93;;;6.80;;
54247;SDS011;40161;39.768;2.722;2022-12-07T10:21:11;10.82;;;5.05;;
54247;SDS011;40161;39.768;2.722;2022-12-07T10:23:38;11.55;;;5.60;;
54247;SDS011;40161;39.768;2.722;2022-12-07T10:29:03;11.52;;;6.07;;
54247;SDS011;40161;39.768;2.722;2022-12-07T10:32:32;13.00;;;5.90;;
54247;SDS011;40161;39.768;2.722;2022-12-07T10:34:40;12.60;;;5.07;;
54247;SDS011;40161;39.768;2.722;2022-12-07T10:42:21;11.43;;;6.65;;
54247;SDS011;40161;39.768;2.722;2022-12-07T10:44:49;11.17;;;6.60;;
54247;SDS011;40161;39.768;2.722;2022-12-07T10:50:14;11.83;;;5.90;;
54247;SDS011;40161;39.768;2.722;2022-12-07T11:04:24;14.68;;;8.52;;
54247;SDS011;40161;39.768;2.722;2022-12-07T11:10:13;19.60;;;13.95;;
54247;SDS011;40161;39.768;2.722;2022-12-07T11:13:02;23.05;;;15.48;;
54247;SDS011;40161;39.768;2.722;2022-12-07T11:16:23;20.77;;;15.65;;
54247;SDS011;40161;39.768;2.722;2022-12-07T11:21:14;24.95;;;14.55;;
54247;SDS011;40161;39.768;2.722;2022-12-07T11:24:01;20.90;;;12.90;;
54247;SDS011;40161;39.768;2.722;2022-12-07T11:37:31;13.80;;;7.47;;
54247;SDS011;40161;39.768;2.722;2022-12-07T11:40:03;17.73;;;8.80;;
54247;SDS011;40161;39.768;2.722;2022-12-07T11:42:42;16.33;;;8.60;;
54247;SDS011;40161;39.768;2.722;2022-12-07T11:45:16;17.55;;;10.57;;
54247;SDS011;40161;39.768;2.722;2022-12-07T11:58:15;17.52;;;10.52;;
54247;SDS011;40161;39.768;2.722;2022-12-07T12:01:24;31.75;;;18.20;;
54247;SDS011;40161;39.768;2.722;2022-12-07T12:04:23;31.63;;;16.83;;
54247;SDS011;40161;39.768;2.722;2022-12-07T12:07:06;32.95;;;17.58;;
54247;SDS011;40161;39.768;2.722;2022-12-07T12:09:39;26.50;;;14.05;;
54247;SDS011;40161;39.768;2.722;2022-12-07T12:17:53;27.38;;;14.43;;
54247;SDS011;40161;39.768;2.722;2022-12-07T12:20:43;25.75;;;13.95;;
54247;SDS011;40161;39.768;2.722;2022-12-07T12:25:48;23.38;;;13.75;;
54247;SDS011;40161;39.768;2.722;2022-12-07T12:31:06;19.65;;;10.05;;
54247;SDS011;40161;39.768;2.722;2022-12-07T12:33:45;18.42;;;10.07;;
54247;SDS011;40161;39.768;2.722;2022-12-07T12:51:53;17.38;;;8.88;;
54247;SDS011;40161;39.768;2.722;2022-12-07T12:59:41;10.77;;;5.38;;
54247;SDS011;40161;39.768;2.722;2022-12-07T13:02:26;11.40;;;5.40;;
54247;SDS011;40161;39.768;2.722;2022-12-07T13:04:54;10.32;;;4.50;;
54247;SDS011;40161;39.768;2.722;2022-12-07T13:13:02;12.32;;;6.85;;
54247;SDS011;40161;39.768;2.722;2022-12-07T13:29:09;9.77;;;5.20;;
54247;SDS011;40161;39.768;2.722;2022-12-07T13:31:37;9.77;;;4.63;;
54247;SDS011;40161;39.768;2.722;2022-12-07T13:34:27;11.48;;;5.50;;
54247;SDS011;40161;39.768;2.722;2022-12-07T13:36:54;10.93;;;6.05;;
54247;SDS011;40161;39.768;2.722;2022-12-07T13:39:21;11.88;;;6.38;;
54247;SDS011;40161;39.768;2.722;2022-12-07T13:41:50;10.93;;;4.55;;
54247;SDS011;40161;39.768;2.722;2022-12-07T13:44:20;8.10;;;4.22;;
54247;SDS011;40161;39.768;2.722;2022-12-07T13:46:49;11.95;;;4.70;;
54247;SDS011;40161;39.768;2.722;2022-12-07T13:49:30;6.90;;;3.78;;
54247;SDS011;40161;39.768;2.722;2022-12-07T13:57:11;10.13;;;4.45;;
54247;SDS011;40161;39.768;2.722;2022-12-07T13:59:37;9.82;;;4.65;;
54247;SDS011;40161;39.768;2.722;2022-12-07T14:02:16;9.43;;;5.05;;
54247;SDS011;40161;39.768;2.722;2022-12-07T14:05:05;10.88;;;4.90;;
54247;SDS011;40161;39.768;2.722;2022-12-07T14:08:33;10.70;;;4.90;;
54247;SDS011;40161;39.768;2.722;2022-12-07T14:10:53;12.50;;;5.93;;
54247;SDS011;40161;39.768;2.722;2022-12-07T14:13:31;12.20;;;5.20;;
54247;SDS011;40161;39.768;2.722;2022-12-07T14:16:00;9.07;;;4.75;;
54247;SDS011;40161;39.768;2.722;2022-12-07T14:18:38;8.52;;;4.25;;
54247;SDS011;40161;39.768;2.722;2022-12-07T14:21:17;7.85;;;4.78;;
54247;SDS011;40161;39.768;2.722;2022-12-07T14:26:35;8.95;;;4.82;;
54247;SDS011;40161;39.768;2.722;2022-12-07T14:31:47;9.82;;;4.60;;
54247;SDS011;40161;39.768;2.722;2022-12-07T14:34:13;6.50;;;4.20;;
54247;SDS011;40161;39.768;2.722;2022-12-07T14:36:38;8.05;;;3.83;;
54247;SDS011;40161;39.768;2.722;2022-12-07T14:39:04;9.65;;;4.40;;
54247;SDS011;40161;39.768;2.722;2022-12-07T14:41:30;7.20;;;4.50;;
54247;SDS011;40161;39.768;2.722;2022-12-07T14:44:13;11.30;;;4.57;;
54247;SDS011;40161;39.768;2.722;2022-12-07T14:46:39;6.53;;;3.65;;
54247;SDS011;40161;39.768;2.722;2022-12-07T14:49:04;8.43;;;4.60;;
54247;SDS011;40161;39.768;2.722;2022-12-07T14:51:30;9.02;;;5.05;;
54247;SDS011;40161;39.768;2.722;2022-12-07T14:53:57;9.50;;;5.15;;
54247;SDS011;40161;39.768;2.722;2022-12-07T14:56:22;7.97;;;3.85;;
54247;SDS011;40161;39.768;2.722;2022-12-07T14:58:48;11.57;;;4.18;;
54247;SDS011;40161;39.768;2.722;2022-12-07T15:01:14;11.75;;;5.15;;
54247;SDS011;40161;39.768;2.722;2022-12-07T15:03:39;15.93;;;7.93;;
54247;SDS011;40161;39.768;2.722;2022-12-07T15:06:05;21.83;;;15.45;;
54247;SDS011;40161;39.768;2.722;2022-12-07T15:08:32;29.48;;;19.27;;
54247;SDS011;40161;39.768;2.722;2022-12-07T15:10:58;16.73;;;11.73;;
54247;SDS011;40161;39.768;2.722;2022-12-07T15:13:23;14.20;;;8.73;;
54247;SDS011;40161;39.768;2.722;2022-12-07T15:16:09;28.75;;;18.35;;
54247;SDS011;40161;39.768;2.722;2022-12-07T15:18:36;21.40;;;13.88;;
54247;SDS011;40161;39.768;2.722;2022-12-07T15:21:02;19.02;;;11.88;;
54247;SDS011;40161;39.768;2.722;2022-12-07T15:23:28;18.75;;;10.20;;
54247;SDS011;40161;39.768;2.722;2022-12-07T15:25:54;18.50;;;11.13;;
54247;SDS011;40161;39.768;2.722;2022-12-07T15:28:19;21.85;;;14.07;;
54247;SDS011;40161;39.768;2.722;2022-12-07T15:30:45;20.05;;;11.80;;
54247;SDS011;40161;39.768;2.722;2022-12-07T15:33:11;18.77;;;10.00;;
54247;SDS011;40161;39.768;2.722;2022-12-07T15:35:41;14.50;;;8.88;;
54247;SDS011;40161;39.768;2.722;2022-12-07T15:38:10;15.98;;;8.70;;
54247;SDS011;40161;39.768;2.722;2022-12-07T15:40:36;19.30;;;11.50;;
54247;SDS011;40161;39.768;2.722;2022-12-07T15:43:02;20.77;;;13.23;;
54247;SDS011;40161;39.768;2.722;2022-12-07T15:45:28;22.17;;;14.65;;
54247;SDS011;40161;39.768;2.722;2022-12-07T15:47:54;24.75;;;15.98;;
54247;SDS011;40161;39.768;2.722;2022-12-07T15:50:20;20.38;;;12.57;;
54247;SDS011;40161;39.768;2.722;2022-12-07T15:52:46;17.10;;;11.02;;
54247;SDS011;40161;39.768;2.722;2022-12-07T15:55:12;11.55;;;8.73;;
54247;SDS011;40161;39.768;2.722;2022-12-07T15:57:39;13.68;;;9.88;;
54247;SDS011;40161;39.768;2.722;2022-12-07T16:00:05;20.88;;;18.23;;
54247;SDS011;40161;39.768;2.722;2022-12-07T16:02:33;34.85;;;23.20;;
54247;SDS011;40161;39.768;2.722;2022-12-07T16:04:59;29.10;;;19.98;;
54247;SDS011;40161;39.768;2.722;2022-12-07T16:07:24;39.90;;;24.63;;
54247;SDS011;40161;39.768;2.722;2022-12-07T16:09:50;65.05;;;39.00;;
54247;SDS011;40161;39.768;2.722;2022-12-07T16:12:16;85.78;;;54.53;;
54247;SDS011;40161;39.768;2.722;2022-12-07T16:14:42;83.32;;;57.00;;
54247;SDS011;40161;39.768;2.722;2022-12-07T16:17:08;70.43;;;48.30;;
54247;SDS011;40161;39.768;2.722;2022-12-07T16:19:35;51.67;;;36.95;;
54247;SDS011;40161;39.768;2.722;2022-12-07T16:22:02;69.35;;;40.78;;
54247;SDS011;40161;39.768;2.722;2022-12-07T16:24:28;77.85;;;45.70;;
54247;SDS011;40161;39.768;2.722;2022-12-07T16:26:54;57.03;;;35.83;;
54247;SDS011;40161;39.768;2.722;2022-12-07T16:29:21;36.17;;;22.38;;
54247;SDS011;40161;39.768;2.722;2022-12-07T16:31:47;32.88;;;20.35;;
54247;SDS011;40161;39.768;2.722;2022-12-07T16:34:13;37.65;;;23.20;;
54247;SDS011;40161;39.768;2.722;2022-12-07T16:36:39;41.20;;;23.30;;
54247;SDS011;40161;39.768;2.722;2022-12-07T16:39:05;37.92;;;21.02;;
54247;SDS011;40161;39.768;2.722;2022-12-07T16:41:30;34.53;;;21.95;;
54247;SDS011;40161;39.768;2.722;2022-12-07T16:47:18;23.23;;;15.77;;
54247;SDS011;40161;39.768;2.722;2022-12-07T16:49:43;20.52;;;14.02;;
54247;SDS011;40161;39.768;2.722;2022-12-07T16:52:09;33.33;;;19.73;;
54247;SDS011;40161;39.768;2.722;2022-12-07T16:54:35;48.13;;;26.88;;
54247;SDS011;40161;39.768;2.722;2022-12-07T16:57:01;32.70;;;20.75;;
54247;SDS011;40161;39.768;2.722;2022-12-07T16:59:27;26.15;;;17.15;;
54247;SDS011;40161;39.768;2.722;2022-12-07T17:01:52;31.00;;;19.83;;
54247;SDS011;40161;39.768;2.722;2022-12-07T17:04:18;32.92;;;20.35;;
54247;SDS011;40161;39.768;2.722;2022-12-07T17:06:43;33.38;;;20.80;;
54247;SDS011;40161;39.768;2.722;2022-12-07T17:09:09;36.17;;;23.08;;
54247;SDS011;40161;39.768;2.722;2022-12-07T17:11:37;38.13;;;23.65;;
54247;SDS011;40161;39.768;2.722;2022-12-07T17:14:02;36.30;;;23.42;;
54247;SDS011;40161;39.768;2.722;2022-12-07T17:16:46;23.00;;;17.15;;
54247;SDS011;40161;39.768;2.722;2022-12-07T17:19:13;22.27;;;19.33;;
54247;SDS011;40161;39.768;2.722;2022-12-07T17:21:40;31.55;;;24.10;;
54247;SDS011;40161;39.768;2.722;2022-12-07T17:24:07;36.47;;;26.65;;
54247;SDS011;40161;39.768;2.722;2022-12-07T17:26:34;34.67;;;28.83;;
54247;SDS011;40161;39.768;2.722;2022-12-07T17:29:00;29.50;;;23.10;;